Mozdok, Russia
Current Conditions -  °F | °C
As of 7:00 AM on Thursday 29 Jan 2015 (Local Time) from URMO Reporting Station
Overcast Overcast  
Wind Chill: 32°   Ceiling: 400
Heat Index: 32°   Visibility: 5mi
Dew Point: 30°   Wind: 2mph
Humidity: 93%   Direction: 250°WSW
Pressure: 29.83"   Gusts: NA
Location:  43.75°N, 44.65°E
Report Text: URMO 290400Z 25001MPS 8000 BKN004 OVC010 M00/M01 Q1010 NOSIGRMK MT OBSC QFE714/0952 SC050
Loading
Personal Weather Stations






























Interactive Weather Map New forecast layout! Learn more

10-Day Weather Forecast

Advertisements
Track Severe Weather on mobile